createdAt,value
2023-07-06T00:02:27.102Z,1.95
2023-07-06T00:05:15.089Z,2.10
2023-07-06T00:08:03.255Z,1.88
2023-07-06T00:10:51.067Z,1.95
2023-07-06T00:13:41.922Z,2.17
2023-07-06T00:16:29.390Z,1.90
2023-07-06T00:19:20.732Z,1.75
2023-07-06T00:22:10.641Z,1.73
2023-07-06T00:24:58.963Z,1.70
2023-07-06T00:27:46.300Z,1.80
2023-07-06T00:30:45.727Z,2.00
2023-07-06T00:33:33.047Z,1.70
2023-07-06T00:36:20.404Z,1.92
2023-07-06T00:39:08.327Z,1.90
2023-07-06T00:41:55.756Z,2.25
2023-07-06T00:44:47.768Z,1.95
2023-07-06T00:47:38.458Z,2.08
2023-07-06T00:50:29.438Z,2.10
2023-07-06T00:53:18.434Z,2.40
2023-07-06T00:56:12.306Z,2.17
2023-07-06T00:59:03.961Z,2.13
2023-07-06T01:01:51.532Z,2.28
2023-07-06T01:04:40.871Z,2.17
2023-07-06T01:07:30.406Z,2.13
2023-07-06T01:10:19.231Z,2.50
2023-07-06T01:13:08.917Z,2.05
2023-07-06T01:16:12.020Z,2.10
2023-07-06T01:19:28.541Z,1.98
2023-07-06T01:22:28.070Z,2.40
2023-07-06T01:25:34.738Z,2.28
2023-07-06T01:28:42.000Z,2.58
2023-07-06T01:31:37.506Z,2.67
2023-07-06T01:34:27.736Z,2.40
2023-07-06T01:37:24.428Z,2.22
2023-07-06T01:40:12.851Z,1.92
2023-07-06T01:43:00.650Z,2.50
2023-07-06T01:45:48.759Z,2.45
2023-07-06T01:48:38.361Z,2.53
2023-07-06T01:51:43.702Z,2.83
2023-07-06T01:54:41.039Z,2.47
2023-07-06T01:57:43.255Z,2.83
2023-07-06T02:00:43.983Z,3.27
2023-07-06T02:03:32.002Z,3.30
2023-07-06T02:06:19.450Z,3.22
2023-07-06T02:09:14.218Z,3.78
2023-07-06T02:12:01.874Z,3.35
2023-07-06T02:14:54.532Z,3.25
2023-07-06T02:17:41.884Z,3.35
2023-07-06T02:20:30.284Z,2.90
2023-07-06T02:23:25.685Z,3.20
2023-07-06T02:26:13.732Z,3.03
2023-07-06T02:29:02.694Z,2.85
2023-07-06T02:31:50.462Z,2.50
2023-07-06T02:34:37.825Z,2.53
2023-07-06T02:37:25.522Z,2.47
2023-07-06T02:40:13.431Z,2.42
2023-07-06T02:43:02.621Z,1.88
2023-07-06T02:45:50.043Z,2.15
2023-07-06T02:48:37.328Z,2.13
2023-07-06T02:51:24.449Z,2.15
2023-07-06T02:54:16.281Z,2.03
2023-07-06T02:57:03.618Z,2.00
2023-07-06T02:59:52.282Z,2.00
2023-07-06T03:02:39.574Z,1.88
2023-07-06T03:05:27.115Z,2.17
2023-07-06T03:08:14.385Z,2.15
2023-07-06T03:11:01.953Z,2.40
2023-07-06T03:13:49.701Z,2.30
2023-07-06T03:16:42.889Z,1.95
2023-07-06T03:19:30.503Z,2.00
2023-07-06T03:22:18.908Z,2.05
2023-07-06T03:25:07.930Z,2.28
2023-07-06T03:27:56.066Z,2.17
2023-07-06T03:30:44.361Z,2.08
2023-07-06T03:33:31.902Z,2.60
2023-07-06T03:36:19.136Z,2.20
2023-07-06T03:39:07.851Z,2.15
2023-07-06T03:41:56.636Z,2.78
2023-07-06T03:44:44.488Z,2.20
2023-07-06T03:47:34.252Z,2.70
2023-07-06T03:50:24.529Z,3.00
2023-07-06T03:53:12.235Z,2.50
2023-07-06T03:56:00.048Z,3.20
2023-07-06T03:58:47.363Z,2.53
2023-07-06T04:01:34.704Z,2.60
2023-07-06T04:04:27.933Z,2.45
2023-07-06T04:07:15.550Z,2.53
2023-07-06T04:10:04.375Z,2.60
2023-07-06T04:12:51.835Z,2.92
2023-07-06T04:15:41.978Z,2.63
2023-07-06T04:18:29.290Z,3.00
2023-07-06T04:21:20.721Z,2.78
2023-07-06T04:24:09.073Z,3.13
2023-07-06T04:26:56.370Z,3.00
2023-07-06T04:29:43.838Z,3.15
2023-07-06T04:32:32.827Z,3.22
2023-07-06T04:35:23.693Z,2.92
2023-07-06T04:38:11.893Z,2.80
2023-07-06T04:40:59.423Z,2.72
2023-07-06T04:43:46.824Z,2.67
2023-07-06T04:46:34.295Z,2.47
2023-07-06T04:49:21.971Z,2.75
2023-07-06T04:52:09.242Z,2.47
2023-07-06T04:54:59.672Z,2.35
2023-07-06T04:57:47.437Z,2.35
2023-07-06T05:00:38.740Z,2.10
2023-07-06T05:03:26.481Z,2.33
2023-07-06T05:06:13.858Z,2.15
2023-07-06T05:09:01.630Z,2.22
2023-07-06T05:11:48.876Z,2.42
2023-07-06T05:14:36.168Z,1.88
2023-07-06T05:17:23.625Z,2.10
2023-07-06T05:20:15.240Z,2.20
2023-07-06T05:23:04.940Z,2.20
2023-07-06T05:25:57.667Z,1.85
2023-07-06T05:28:51.350Z,1.83
2023-07-06T05:31:38.698Z,1.98
2023-07-06T05:34:26.129Z,1.92
2023-07-06T05:37:20.466Z,2.40
2023-07-06T05:40:14.416Z,2.20
2023-07-06T05:43:11.410Z,1.80
2023-07-06T05:45:59.112Z,1.77
2023-07-06T05:48:49.579Z,1.98
2023-07-06T05:51:37.064Z,1.90
2023-07-06T05:54:24.474Z,2.00
2023-07-06T05:57:12.339Z,1.98
2023-07-06T06:00:00.227Z,2.00
2023-07-06T06:02:47.642Z,1.85
2023-07-06T06:05:35.838Z,1.90
2023-07-06T06:08:23.971Z,2.00
2023-07-06T06:11:11.491Z,1.92
2023-07-06T06:13:58.789Z,1.83
2023-07-06T06:16:46.243Z,1.88
2023-07-06T06:19:38.768Z,2.20
2023-07-06T06:22:26.176Z,1.60
2023-07-06T06:25:13.717Z,2.05
2023-07-06T06:28:01.278Z,1.90
2023-07-06T06:30:49.205Z,2.10
2023-07-06T06:33:36.478Z,2.20
2023-07-06T06:36:24.110Z,1.80
2023-07-06T06:39:11.508Z,2.10
2023-07-06T06:42:00.538Z,2.00
2023-07-06T06:44:47.899Z,1.80
2023-07-06T06:47:35.218Z,1.75
2023-07-06T06:50:22.694Z,1.60
2023-07-06T06:53:10.001Z,1.70
2023-07-06T06:55:58.482Z,1.88
2023-07-06T06:58:47.649Z,1.80
2023-07-06T07:01:35.007Z,1.85
2023-07-06T07:04:22.402Z,1.80
2023-07-06T07:07:09.685Z,1.70
2023-07-06T07:09:56.943Z,1.98
2023-07-06T07:12:48.439Z,1.90
2023-07-06T07:15:35.792Z,1.95
2023-07-06T07:18:24.058Z,2.05
2023-07-06T07:21:13.649Z,1.83
2023-07-06T07:24:02.257Z,1.98
2023-07-06T07:26:50.696Z,1.77
2023-07-06T07:29:37.927Z,1.63
2023-07-06T07:32:25.321Z,1.85
2023-07-06T07:35:12.579Z,1.75
2023-07-06T07:38:02.307Z,1.80
2023-07-06T07:41:01.597Z,1.80
2023-07-06T07:43:50.209Z,1.60
2023-07-06T07:47:12.451Z,1.88
2023-07-06T07:49:59.704Z,1.80
2023-07-06T07:52:47.038Z,1.90
2023-07-06T07:55:36.746Z,1.90
2023-07-06T07:58:24.883Z,1.60
2023-07-06T08:01:13.023Z,1.92
2023-07-06T08:04:00.644Z,1.70
2023-07-06T08:06:47.931Z,1.73
2023-07-06T08:09:35.317Z,1.70
2023-07-06T08:12:22.710Z,1.73
2023-07-06T08:15:10.430Z,1.73
2023-07-06T08:18:01.591Z,2.33
2023-07-06T08:21:37.142Z,2.20
2023-07-06T08:24:02.139Z,1.80
2023-07-06T08:26:50.946Z,1.75
2023-07-06T08:29:43.874Z,1.80
2023-07-06T08:32:31.674Z,1.98
2023-07-06T08:35:19.449Z,1.92
2023-07-06T08:38:07.081Z,1.98
2023-07-06T08:40:56.468Z,1.70
2023-07-06T08:43:44.544Z,2.28
2023-07-06T08:46:36.425Z,1.80
2023-07-06T08:49:31.295Z,2.15
2023-07-06T08:52:20.286Z,1.98
2023-07-06T08:55:15.202Z,1.70
2023-07-06T08:58:05.040Z,1.83
2023-07-06T09:00:58.997Z,1.90
2023-07-06T09:04:13.286Z,1.73
2023-07-06T09:07:01.550Z,1.67
2023-07-06T09:09:49.623Z,1.83
2023-07-06T09:12:40.362Z,1.80
2023-07-06T09:15:31.736Z,1.85
2023-07-06T09:18:19.000Z,1.80
2023-07-06T09:21:06.242Z,1.60
2023-07-06T09:23:54.494Z,2.00
2023-07-06T09:26:45.095Z,1.70
2023-07-06T09:29:34.680Z,2.55
2023-07-06T09:32:23.225Z,1.90
2023-07-06T09:35:19.008Z,2.13
2023-07-06T09:38:08.981Z,2.00
2023-07-06T09:40:57.036Z,1.73
2023-07-06T09:43:44.468Z,1.70
2023-07-06T09:46:38.002Z,1.90
2023-07-06T09:49:33.863Z,1.70
2023-07-06T09:52:22.167Z,1.60
2023-07-06T09:55:15.554Z,1.98
2023-07-06T09:58:03.452Z,1.60
2023-07-06T10:00:58.140Z,1.80
2023-07-06T10:03:58.835Z,1.90
2023-07-06T10:06:56.657Z,2.00
2023-07-06T10:09:54.495Z,2.00
2023-07-06T10:12:55.681Z,1.92
2023-07-06T10:15:52.575Z,2.10
2023-07-06T10:18:51.008Z,2.10
2023-07-06T10:21:52.646Z,2.10
2023-07-06T10:24:46.633Z,1.95
2023-07-06T10:27:40.043Z,1.90
2023-07-06T10:30:33.489Z,2.70
2023-07-06T10:33:29.418Z,2.17
2023-07-06T10:36:18.027Z,1.95
2023-07-06T10:39:34.132Z,1.95
2023-07-06T10:42:26.898Z,1.90
2023-07-06T10:45:34.073Z,2.08
2023-07-06T10:48:28.673Z,2.10
2023-07-06T10:51:26.889Z,2.00
2023-07-06T10:54:18.299Z,2.00
2023-07-06T10:57:13.806Z,1.88
2023-07-06T11:00:17.513Z,1.85
2023-07-06T11:03:07.255Z,2.08
2023-07-06T11:06:08.102Z,2.33
2023-07-06T11:09:09.014Z,2.22
2023-07-06T11:11:56.518Z,2.33
2023-07-06T11:14:45.711Z,2.10
2023-07-06T11:17:40.070Z,2.00
2023-07-06T11:20:30.102Z,2.10
2023-07-06T11:23:20.495Z,2.00
2023-07-06T11:29:14.921Z,2.10
2023-07-06T11:32:36.245Z,2.38
2023-07-06T11:35:51.459Z,2.17
2023-07-06T11:38:47.807Z,2.30
2023-07-06T11:41:45.795Z,2.10
2023-07-06T11:44:44.177Z,2.30
2023-07-06T11:48:03.108Z,2.20
2023-07-06T11:50:50.658Z,2.33
2023-07-06T11:53:55.883Z,2.17
2023-07-06T11:56:55.308Z,2.25
2023-07-06T11:59:53.610Z,2.10
2023-07-06T12:02:42.215Z,2.15
2023-07-06T12:05:35.932Z,1.92
2023-07-06T12:08:28.540Z,2.28
2023-07-06T12:11:23.436Z,1.95
2023-07-06T12:14:21.602Z,2.15
2023-07-06T12:17:12.652Z,2.28
2023-07-06T12:20:00.523Z,2.30
2023-07-06T12:22:58.401Z,2.40
2023-07-06T12:25:45.682Z,2.15
2023-07-06T12:28:33.219Z,2.40
2023-07-06T12:31:20.730Z,2.03
2023-07-06T12:34:10.014Z,1.90
2023-07-06T12:37:01.591Z,1.95
2023-07-06T12:39:51.012Z,2.28
2023-07-06T12:42:38.444Z,2.30
2023-07-06T12:45:25.851Z,2.05
2023-07-06T12:48:26.876Z,2.17
2023-07-06T12:51:21.200Z,2.40
2023-07-06T12:54:10.826Z,2.30
2023-07-06T12:57:06.918Z,2.28
2023-07-06T13:00:16.561Z,2.00
2023-07-06T13:03:05.081Z,2.25
2023-07-06T13:05:55.699Z,2.30
2023-07-06T13:08:44.495Z,2.45
2023-07-06T13:11:31.811Z,2.67
2023-07-06T13:14:21.978Z,2.25
2023-07-06T13:17:24.940Z,2.08
2023-07-06T13:20:12.978Z,2.05
2023-07-06T13:23:00.402Z,2.17
2023-07-06T13:25:51.053Z,2.13
2023-07-06T13:31:34.289Z,2.25
2023-07-06T13:34:35.781Z,2.22
2023-07-06T13:37:30.273Z,2.33
2023-07-06T13:40:21.499Z,2.30
2023-07-06T13:43:14.751Z,2.08
2023-07-06T13:46:02.376Z,2.20
2023-07-06T13:48:50.343Z,2.00
2023-07-06T13:51:37.969Z,2.10
2023-07-06T13:54:27.168Z,2.22
2023-07-06T13:57:14.482Z,2.13
2023-07-06T14:00:02.249Z,2.10
2023-07-06T14:02:50.409Z,2.15
2023-07-06T14:05:38.651Z,2.00
2023-07-06T14:08:26.745Z,2.35
2023-07-06T14:11:14.889Z,2.85
2023-07-06T14:14:02.090Z,2.40
2023-07-06T14:16:49.464Z,2.30
2023-07-06T14:19:43.982Z,2.40
2023-07-06T14:22:41.161Z,2.13
2023-07-06T14:25:29.187Z,2.05
2023-07-06T14:28:19.708Z,2.40
2023-07-06T14:31:08.050Z,2.10
2023-07-06T14:33:55.976Z,2.20
2023-07-06T14:36:43.542Z,2.05
2023-07-06T14:39:30.825Z,2.20
2023-07-06T14:42:18.452Z,2.20
2023-07-06T14:45:06.565Z,2.70
2023-07-06T14:47:53.994Z,2.35
2023-07-06T14:50:41.798Z,2.03
2023-07-06T14:53:29.148Z,2.40
2023-07-06T14:56:17.916Z,2.30
2023-07-06T14:59:05.148Z,2.30
2023-07-06T15:01:52.435Z,2.20
2023-07-06T15:04:40.482Z,2.03
2023-07-06T15:07:27.700Z,2.33
2023-07-06T15:10:16.022Z,2.17
2023-07-06T15:13:03.767Z,2.83
2023-07-06T15:15:51.044Z,2.95
2023-07-06T15:18:38.500Z,2.53
2023-07-06T15:21:26.636Z,2.30
2023-07-06T15:24:14.020Z,2.38
2023-07-06T15:27:02.959Z,2.58
2023-07-06T15:29:50.225Z,2.35
2023-07-06T15:32:37.589Z,2.10
2023-07-06T15:35:24.811Z,2.42
2023-07-06T15:38:13.271Z,2.78
2023-07-06T15:41:00.509Z,2.85
2023-07-06T15:43:47.897Z,2.60
2023-07-06T15:46:35.557Z,2.47
2023-07-06T15:49:23.142Z,2.20
2023-07-06T15:52:10.597Z,2.13
2023-07-06T15:54:58.061Z,2.20
2023-07-06T15:57:45.465Z,2.40
2023-07-06T16:00:33.048Z,2.20
2023-07-06T16:03:24.032Z,2.22
2023-07-06T16:06:11.376Z,2.22
2023-07-06T16:08:59.277Z,2.50
2023-07-06T16:11:50.321Z,2.33
2023-07-06T16:14:38.715Z,2.45
2023-07-06T16:17:26.367Z,2.25
2023-07-06T16:20:13.789Z,2.40
2023-07-06T16:23:01.192Z,2.47
2023-07-06T16:25:48.536Z,2.20
2023-07-06T16:28:37.943Z,2.30
2023-07-06T16:31:25.232Z,2.13
2023-07-06T16:34:12.747Z,2.30
2023-07-06T16:37:00.162Z,2.80
2023-07-06T16:39:47.962Z,2.50
2023-07-06T16:42:35.355Z,2.58
2023-07-06T16:45:22.758Z,2.70
2023-07-06T16:48:10.010Z,2.33
2023-07-06T16:50:57.677Z,2.22
2023-07-06T16:53:45.390Z,2.45
2023-07-06T16:56:32.735Z,2.30
2023-07-06T16:59:20.025Z,2.40
2023-07-06T17:02:09.494Z,2.92
2023-07-06T17:04:56.823Z,3.00
2023-07-06T17:07:44.764Z,2.42
2023-07-06T17:10:32.512Z,2.33
2023-07-06T17:13:19.806Z,2.30
2023-07-06T17:16:07.488Z,2.33
2023-07-06T17:18:55.185Z,2.50
2023-07-06T17:21:42.840Z,2.00
2023-07-06T17:24:30.018Z,2.53
2023-07-06T17:27:17.353Z,2.40
2023-07-06T17:30:04.986Z,2.25
2023-07-06T17:32:52.341Z,2.63
2023-07-06T17:35:39.674Z,2.33
2023-07-06T17:38:27.008Z,2.22
2023-07-06T17:41:18.052Z,2.30
2023-07-06T17:44:05.232Z,2.33
2023-07-06T17:46:52.564Z,2.60
2023-07-06T17:49:40.048Z,2.35
2023-07-06T17:52:27.280Z,2.35
2023-07-06T17:55:15.866Z,2.53
2023-07-06T17:58:04.087Z,2.50
2023-07-06T18:00:52.956Z,2.40
2023-07-06T18:03:40.235Z,2.40
2023-07-06T18:06:27.803Z,2.40
2023-07-06T18:09:15.071Z,2.53
2023-07-06T18:12:02.223Z,2.20
2023-07-06T18:14:49.652Z,2.15
2023-07-06T18:17:36.904Z,2.70
2023-07-06T18:20:24.172Z,2.50
2023-07-06T18:23:12.623Z,2.60
2023-07-06T18:26:02.807Z,2.28
2023-07-06T18:28:50.088Z,2.42
2023-07-06T18:31:37.345Z,2.20
2023-07-06T18:34:24.861Z,2.38
2023-07-06T18:37:12.012Z,2.30
2023-07-06T18:39:59.383Z,2.10
2023-07-06T18:42:46.582Z,2.60
2023-07-06T18:45:42.313Z,2.40
2023-07-06T18:48:32.576Z,2.72
2023-07-06T18:51:19.885Z,2.45
2023-07-06T18:54:07.369Z,2.22
2023-07-06T18:56:54.552Z,2.20
2023-07-06T18:59:41.715Z,2.35
2023-07-06T19:02:29.087Z,2.70
2023-07-06T19:05:16.405Z,2.50
2023-07-06T19:08:04.631Z,2.55
2023-07-06T19:10:51.914Z,2.60
2023-07-06T19:13:39.159Z,2.65
2023-07-06T19:16:26.474Z,2.35
2023-07-06T19:19:13.852Z,2.40
2023-07-06T19:22:01.103Z,2.42
2023-07-06T19:24:48.562Z,2.13
2023-07-06T19:27:36.780Z,2.42
2023-07-06T19:30:25.099Z,2.67
2023-07-06T19:33:12.665Z,2.30
2023-07-06T19:36:00.339Z,2.50
2023-07-06T19:38:48.028Z,2.50
2023-07-06T19:41:35.360Z,2.22
2023-07-06T19:44:22.717Z,2.25
2023-07-06T19:47:10.114Z,2.35
2023-07-06T19:49:57.419Z,2.42
2023-07-06T19:52:44.650Z,2.67
2023-07-06T19:55:34.066Z,2.42
2023-07-06T19:58:22.022Z,2.40
2023-07-06T20:01:10.044Z,2.47
2023-07-06T20:03:57.532Z,2.72
2023-07-06T20:06:46.315Z,2.40
2023-07-06T20:09:33.525Z,2.33
2023-07-06T20:12:20.770Z,2.35
2023-07-06T20:15:08.976Z,2.35
2023-07-06T20:17:58.843Z,2.33
2023-07-06T20:20:48.044Z,2.70
2023-07-06T20:23:35.288Z,2.70
2023-07-06T20:26:22.626Z,2.67
2023-07-06T20:29:09.958Z,2.67
2023-07-06T20:31:57.248Z,2.35
2023-07-06T20:34:45.244Z,2.80
2023-07-06T20:37:32.928Z,2.20
2023-07-06T20:40:20.185Z,2.45
2023-07-06T20:43:08.245Z,2.55
2023-07-06T20:45:57.002Z,2.70
2023-07-06T20:48:44.527Z,3.25
2023-07-06T20:51:31.740Z,3.05
2023-07-06T20:54:19.112Z,2.63
2023-07-06T20:57:06.650Z,2.97
2023-07-06T20:59:53.975Z,2.83
2023-07-06T21:02:41.361Z,2.53
2023-07-06T21:05:29.870Z,2.97
2023-07-06T21:08:17.686Z,2.88
2023-07-06T21:11:04.989Z,2.55
2023-07-06T21:13:52.294Z,2.92
2023-07-06T21:16:46.037Z,2.90
2023-07-06T21:19:33.725Z,3.00
2023-07-06T21:22:20.950Z,3.03
2023-07-06T21:25:08.830Z,3.22
2023-07-06T21:27:56.300Z,2.90
2023-07-06T21:30:44.772Z,3.15
2023-07-06T21:33:34.085Z,3.00
2023-07-06T21:36:22.381Z,2.92
2023-07-06T21:39:11.689Z,3.08
2023-07-06T21:41:59.032Z,2.50
2023-07-06T21:44:46.225Z,2.97
2023-07-06T21:47:33.602Z,2.72
2023-07-06T21:50:21.149Z,3.55
2023-07-06T21:53:09.723Z,3.33
2023-07-06T21:55:57.203Z,3.70
2023-07-06T21:58:45.698Z,3.80
2023-07-06T22:01:33.200Z,3.53
2023-07-06T22:04:20.601Z,3.60
2023-07-06T22:07:08.271Z,2.60
2023-07-06T22:09:55.582Z,3.17
2023-07-06T22:12:42.788Z,3.00
2023-07-06T22:15:35.254Z,3.28
2023-07-06T22:18:24.085Z,3.28
2023-07-06T22:21:12.052Z,2.90
2023-07-06T22:23:59.255Z,3.10
2023-07-06T22:26:46.467Z,3.05
2023-07-06T22:29:33.664Z,3.33
2023-07-06T22:32:21.205Z,3.42
2023-07-06T22:35:08.834Z,3.10
2023-07-06T22:37:56.098Z,3.40
2023-07-06T22:40:43.501Z,3.28
2023-07-06T22:43:31.310Z,3.90
2023-07-06T22:46:18.551Z,3.35
2023-07-06T22:49:05.901Z,3.25
2023-07-06T22:51:56.376Z,3.20
2023-07-06T22:54:43.981Z,3.13
2023-07-06T22:57:31.235Z,2.80
2023-07-06T23:00:18.986Z,3.10
2023-07-06T23:03:07.317Z,3.22
2023-07-06T23:06:05.078Z,3.08
2023-07-06T23:08:52.342Z,3.38
2023-07-06T23:11:39.713Z,3.15
2023-07-06T23:14:27.000Z,3.30
2023-07-06T23:17:15.317Z,3.60
2023-07-06T23:20:05.308Z,3.30
2023-07-06T23:22:52.564Z,3.28
2023-07-06T23:25:44.191Z,3.45
2023-07-06T23:28:35.103Z,3.05
2023-07-06T23:31:38.850Z,3.00
2023-07-06T23:34:26.206Z,3.20
2023-07-06T23:37:15.094Z,3.17
2023-07-06T23:40:02.460Z,3.05
2023-07-06T23:42:51.452Z,3.10
2023-07-06T23:45:38.763Z,2.75
2023-07-06T23:48:25.989Z,3.00
2023-07-06T23:51:13.351Z,3.10
2023-07-06T23:54:00.892Z,3.10
2023-07-06T23:56:48.588Z,3.22
2023-07-06T23:59:35.801Z,3.10
